sensor_id;sensor_type;location;lat;lon;timestamp;P1;durP1;ratioP1;P2;durP2;ratioP2
30147;SDS011;16960;49.404;8.248;2023-05-16T00:00:59;3.13;;;2.93;;
30147;SDS011;16960;49.404;8.248;2023-05-16T00:03:26;3.67;;;3.37;;
30147;SDS011;16960;49.404;8.248;2023-05-16T00:05:56;4.13;;;3.83;;
30147;SDS011;16960;49.404;8.248;2023-05-16T00:08:23;4.03;;;3.40;;
30147;SDS011;16960;49.404;8.248;2023-05-16T00:10:50;3.23;;;2.93;;
30147;SDS011;16960;49.404;8.248;2023-05-16T00:13:17;4.40;;;3.93;;
30147;SDS011;16960;49.404;8.248;2023-05-16T00:15:46;4.00;;;3.70;;
30147;SDS011;16960;49.404;8.248;2023-05-16T00:18:13;3.70;;;3.40;;
30147;SDS011;16960;49.404;8.248;2023-05-16T00:20:41;3.57;;;3.30;;
30147;SDS011;16960;49.404;8.248;2023-05-16T00:23:09;3.70;;;3.50;;
30147;SDS011;16960;49.404;8.248;2023-05-16T00:25:37;3.90;;;3.60;;
30147;SDS011;16960;49.404;8.248;2023-05-16T00:28:04;4.10;;;3.70;;
30147;SDS011;16960;49.404;8.248;2023-05-16T00:30:32;3.27;;;3.07;;
30147;SDS011;16960;49.404;8.248;2023-05-16T00:32:59;3.80;;;3.50;;
30147;SDS011;16960;49.404;8.248;2023-05-16T00:35:26;3.60;;;3.20;;
30147;SDS011;16960;49.404;8.248;2023-05-16T00:58:06;3.57;;;3.37;;
30147;SDS011;16960;49.404;8.248;2023-05-16T01:00:33;4.20;;;3.80;;
30147;SDS011;16960;49.404;8.248;2023-05-16T01:03:02;3.47;;;3.27;;
30147;SDS011;16960;49.404;8.248;2023-05-16T01:05:30;3.47;;;3.17;;
30147;SDS011;16960;49.404;8.248;2023-05-16T01:08:05;4.50;;;4.10;;
30147;SDS011;16960;49.404;8.248;2023-05-16T01:10:34;4.73;;;4.33;;
30147;SDS011;16960;49.404;8.248;2023-05-16T01:13:12;3.73;;;3.43;;
30147;SDS011;16960;49.404;8.248;2023-05-16T01:15:46;4.00;;;3.70;;
30147;SDS011;16960;49.404;8.248;2023-05-16T01:18:18;3.77;;;3.53;;
30147;SDS011;16960;49.404;8.248;2023-05-16T01:20:52;3.93;;;3.63;;
30147;SDS011;16960;49.404;8.248;2023-05-16T01:23:39;4.20;;;3.90;;
30147;SDS011;16960;49.404;8.248;2023-05-16T01:26:17;5.87;;;4.10;;
30147;SDS011;16960;49.404;8.248;2023-05-16T01:28:46;3.50;;;3.30;;
30147;SDS011;16960;49.404;8.248;2023-05-16T01:31:14;3.80;;;3.50;;
30147;SDS011;16960;49.404;8.248;2023-05-16T01:33:41;3.70;;;3.40;;
30147;SDS011;16960;49.404;8.248;2023-05-16T01:36:10;3.93;;;3.63;;
30147;SDS011;16960;49.404;8.248;2023-05-16T01:38:43;3.90;;;3.50;;
30147;SDS011;16960;49.404;8.248;2023-05-16T01:41:20;4.30;;;4.00;;
30147;SDS011;16960;49.404;8.248;2023-05-16T01:43:51;3.63;;;3.40;;
30147;SDS011;16960;49.404;8.248;2023-05-16T01:46:25;3.90;;;3.60;;
30147;SDS011;16960;49.404;8.248;2023-05-16T01:48:57;3.93;;;3.63;;
30147;SDS011;16960;49.404;8.248;2023-05-16T01:51:30;4.53;;;3.67;;
30147;SDS011;16960;49.404;8.248;2023-05-16T01:53:59;4.00;;;3.70;;
30147;SDS011;16960;49.404;8.248;2023-05-16T01:56:32;3.77;;;3.50;;
30147;SDS011;16960;49.404;8.248;2023-05-16T01:59:02;3.50;;;3.30;;
30147;SDS011;16960;49.404;8.248;2023-05-16T02:01:30;4.00;;;3.40;;
30147;SDS011;16960;49.404;8.248;2023-05-16T02:03:57;3.90;;;3.60;;
30147;SDS011;16960;49.404;8.248;2023-05-16T02:06:24;3.33;;;3.13;;
30147;SDS011;16960;49.404;8.248;2023-05-16T02:08:51;3.40;;;3.10;;
30147;SDS011;16960;49.404;8.248;2023-05-16T02:11:18;4.10;;;3.80;;
30147;SDS011;16960;49.404;8.248;2023-05-16T02:13:47;3.50;;;3.30;;
30147;SDS011;16960;49.404;8.248;2023-05-16T02:16:14;3.63;;;3.40;;
30147;SDS011;16960;49.404;8.248;2023-05-16T02:18:41;3.50;;;3.20;;
30147;SDS011;16960;49.404;8.248;2023-05-16T02:21:09;3.50;;;3.30;;
30147;SDS011;16960;49.404;8.248;2023-05-16T02:23:36;3.50;;;3.30;;
30147;SDS011;16960;49.404;8.248;2023-05-16T02:26:02;3.57;;;3.30;;
30147;SDS011;16960;49.404;8.248;2023-05-16T02:28:30;3.97;;;3.67;;
30147;SDS011;16960;49.404;8.248;2023-05-16T02:30:58;3.60;;;3.30;;
30147;SDS011;16960;49.404;8.248;2023-05-16T02:33:27;4.23;;;3.93;;
30147;SDS011;16960;49.404;8.248;2023-05-16T02:35:54;3.70;;;3.50;;
30147;SDS011;16960;49.404;8.248;2023-05-16T02:38:21;4.00;;;3.70;;
30147;SDS011;16960;49.404;8.248;2023-05-16T02:40:48;3.43;;;3.23;;
30147;SDS011;16960;49.404;8.248;2023-05-16T02:43:15;3.47;;;3.27;;
30147;SDS011;16960;49.404;8.248;2023-05-16T02:45:42;3.87;;;3.57;;
30147;SDS011;16960;49.404;8.248;2023-05-16T02:48:11;4.00;;;3.70;;
30147;SDS011;16960;49.404;8.248;2023-05-16T02:50:38;3.90;;;3.60;;
30147;SDS011;16960;49.404;8.248;2023-05-16T02:53:05;3.40;;;3.20;;
30147;SDS011;16960;49.404;8.248;2023-05-16T02:55:32;4.17;;;3.83;;
30147;SDS011;16960;49.404;8.248;2023-05-16T02:57:59;3.00;;;2.80;;
30147;SDS011;16960;49.404;8.248;2023-05-16T03:00:26;3.97;;;3.67;;
30147;SDS011;16960;49.404;8.248;2023-05-16T03:02:52;3.90;;;3.60;;
30147;SDS011;16960;49.404;8.248;2023-05-16T03:05:21;3.70;;;3.50;;
30147;SDS011;16960;49.404;8.248;2023-05-16T03:07:48;4.03;;;3.63;;
30147;SDS011;16960;49.404;8.248;2023-05-16T03:10:15;3.80;;;3.50;;
30147;SDS011;16960;49.404;8.248;2023-05-16T03:12:42;3.53;;;3.23;;
30147;SDS011;16960;49.404;8.248;2023-05-16T03:15:10;4.37;;;4.07;;
30147;SDS011;16960;49.404;8.248;2023-05-16T03:17:37;3.13;;;2.93;;
30147;SDS011;16960;49.404;8.248;2023-05-16T03:20:04;3.33;;;3.13;;
30147;SDS011;16960;49.404;8.248;2023-05-16T03:22:34;3.87;;;3.57;;
30147;SDS011;16960;49.404;8.248;2023-05-16T03:25:01;3.80;;;3.50;;
30147;SDS011;16960;49.404;8.248;2023-05-16T03:27:28;3.97;;;3.67;;
30147;SDS011;16960;49.404;8.248;2023-05-16T03:29:55;3.57;;;3.33;;
30147;SDS011;16960;49.404;8.248;2023-05-16T03:32:22;3.67;;;3.33;;
30147;SDS011;16960;49.404;8.248;2023-05-16T03:34:49;4.10;;;3.80;;
30147;SDS011;16960;49.404;8.248;2023-05-16T03:37:16;3.90;;;3.60;;
30147;SDS011;16960;49.404;8.248;2023-05-16T03:39:45;3.73;;;3.43;;
30147;SDS011;16960;49.404;8.248;2023-05-16T03:42:11;3.60;;;3.40;;
30147;SDS011;16960;49.404;8.248;2023-05-16T03:44:38;3.60;;;3.40;;
30147;SDS011;16960;49.404;8.248;2023-05-16T03:47:05;3.80;;;3.50;;
30147;SDS011;16960;49.404;8.248;2023-05-16T03:49:33;3.53;;;3.23;;
30147;SDS011;16960;49.404;8.248;2023-05-16T03:52:01;3.60;;;3.40;;
30147;SDS011;16960;49.404;8.248;2023-05-16T03:54:28;3.63;;;3.30;;
30147;SDS011;16960;49.404;8.248;2023-05-16T03:56:56;3.47;;;3.27;;
30147;SDS011;16960;49.404;8.248;2023-05-16T03:59:23;3.70;;;3.40;;
30147;SDS011;16960;49.404;8.248;2023-05-16T04:01:50;3.77;;;3.47;;
30147;SDS011;16960;49.404;8.248;2023-05-16T04:04:17;6.17;;;3.80;;
30147;SDS011;16960;49.404;8.248;2023-05-16T04:06:43;4.00;;;3.53;;
30147;SDS011;16960;49.404;8.248;2023-05-16T04:09:10;3.70;;;3.40;;
30147;SDS011;16960;49.404;8.248;2023-05-16T04:11:37;3.70;;;3.40;;
30147;SDS011;16960;49.404;8.248;2023-05-16T04:14:06;4.43;;;4.13;;
30147;SDS011;16960;49.404;8.248;2023-05-16T04:16:32;4.00;;;3.70;;
30147;SDS011;16960;49.404;8.248;2023-05-16T04:18:59;3.70;;;3.40;;
30147;SDS011;16960;49.404;8.248;2023-05-16T04:21:28;4.07;;;3.77;;
30147;SDS011;16960;49.404;8.248;2023-05-16T04:23:55;3.97;;;3.37;;
30147;SDS011;16960;49.404;8.248;2023-05-16T04:26:22;3.30;;;3.10;;
30147;SDS011;16960;49.404;8.248;2023-05-16T04:28:51;3.70;;;3.40;;
30147;SDS011;16960;49.404;8.248;2023-05-16T04:31:21;3.90;;;3.50;;
30147;SDS011;16960;49.404;8.248;2023-05-16T04:33:48;3.70;;;3.47;;
30147;SDS011;16960;49.404;8.248;2023-05-16T04:36:15;3.40;;;3.20;;
30147;SDS011;16960;49.404;8.248;2023-05-16T04:38:42;4.40;;;4.00;;
30147;SDS011;16960;49.404;8.248;2023-05-16T04:41:10;4.83;;;4.43;;
30147;SDS011;16960;49.404;8.248;2023-05-16T04:43:37;3.27;;;3.07;;
30147;SDS011;16960;49.404;8.248;2023-05-16T04:46:06;3.90;;;3.60;;
30147;SDS011;16960;49.404;8.248;2023-05-16T04:48:35;3.73;;;3.43;;
30147;SDS011;16960;49.404;8.248;2023-05-16T04:51:02;3.80;;;3.50;;
30147;SDS011;16960;49.404;8.248;2023-05-16T04:53:29;3.37;;;3.17;;
30147;SDS011;16960;49.404;8.248;2023-05-16T04:55:56;4.17;;;3.87;;
30147;SDS011;16960;49.404;8.248;2023-05-16T04:58:23;3.40;;;3.20;;
30147;SDS011;16960;49.404;8.248;2023-05-16T05:00:50;3.47;;;3.17;;
30147;SDS011;16960;49.404;8.248;2023-05-16T05:03:17;3.37;;;3.17;;
30147;SDS011;16960;49.404;8.248;2023-05-16T05:05:46;4.60;;;3.47;;
30147;SDS011;16960;49.404;8.248;2023-05-16T05:08:13;4.00;;;3.70;;
30147;SDS011;16960;49.404;8.248;2023-05-16T05:10:40;3.40;;;3.10;;
30147;SDS011;16960;49.404;8.248;2023-05-16T05:13:08;3.20;;;2.97;;
30147;SDS011;16960;49.404;8.248;2023-05-16T05:15:35;3.93;;;3.63;;
30147;SDS011;16960;49.404;8.248;2023-05-16T05:18:02;3.60;;;3.40;;
30147;SDS011;16960;49.404;8.248;2023-05-16T05:20:29;3.33;;;3.13;;
30147;SDS011;16960;49.404;8.248;2023-05-16T05:22:58;3.80;;;3.50;;
30147;SDS011;16960;49.404;8.248;2023-05-16T05:25:25;3.33;;;3.13;;
30147;SDS011;16960;49.404;8.248;2023-05-16T05:27:51;3.60;;;3.40;;
30147;SDS011;16960;49.404;8.248;2023-05-16T05:30:18;3.60;;;3.40;;
30147;SDS011;16960;49.404;8.248;2023-05-16T05:32:45;3.23;;;3.03;;
30147;SDS011;16960;49.404;8.248;2023-05-16T05:35:12;3.50;;;3.20;;
30147;SDS011;16960;49.404;8.248;2023-05-16T05:37:39;4.40;;;3.10;;
30147;SDS011;16960;49.404;8.248;2023-05-16T05:40:08;3.17;;;2.93;;
30147;SDS011;16960;49.404;8.248;2023-05-16T05:42:35;3.00;;;2.80;;
30147;SDS011;16960;49.404;8.248;2023-05-16T05:45:02;2.83;;;2.63;;
30147;SDS011;16960;49.404;8.248;2023-05-16T05:47:31;3.27;;;3.00;;
30147;SDS011;16960;49.404;8.248;2023-05-16T05:49:58;3.37;;;2.80;;
30147;SDS011;16960;49.404;8.248;2023-05-16T05:52:26;5.23;;;3.13;;
30147;SDS011;16960;49.404;8.248;2023-05-16T05:54:53;4.40;;;3.63;;
30147;SDS011;16960;49.404;8.248;2023-05-16T05:57:21;3.37;;;3.17;;
30147;SDS011;16960;49.404;8.248;2023-05-16T05:59:48;3.10;;;2.90;;
30147;SDS011;16960;49.404;8.248;2023-05-16T06:02:15;2.97;;;2.77;;
30147;SDS011;16960;49.404;8.248;2023-05-16T06:04:42;6.23;;;3.50;;
30147;SDS011;16960;49.404;8.248;2023-05-16T06:07:09;3.00;;;2.80;;
30147;SDS011;16960;49.404;8.248;2023-05-16T06:09:37;5.40;;;2.90;;
30147;SDS011;16960;49.404;8.248;2023-05-16T06:12:04;3.37;;;2.80;;
30147;SDS011;16960;49.404;8.248;2023-05-16T06:14:32;3.60;;;3.30;;
30147;SDS011;16960;49.404;8.248;2023-05-16T06:16:59;4.50;;;2.37;;
30147;SDS011;16960;49.404;8.248;2023-05-16T06:19:26;2.77;;;2.50;;
30147;SDS011;16960;49.404;8.248;2023-05-16T06:21:53;2.70;;;2.50;;
30147;SDS011;16960;49.404;8.248;2023-05-16T06:24:20;3.73;;;3.17;;
30147;SDS011;16960;49.404;8.248;2023-05-16T06:26:47;3.10;;;2.80;;
30147;SDS011;16960;49.404;8.248;2023-05-16T06:29:14;4.63;;;2.80;;
30147;SDS011;16960;49.404;8.248;2023-05-16T06:31:44;3.60;;;3.03;;
30147;SDS011;16960;49.404;8.248;2023-05-16T06:34:12;3.10;;;2.90;;
30147;SDS011;16960;49.404;8.248;2023-05-16T06:36:39;2.80;;;2.60;;
30147;SDS011;16960;49.404;8.248;2023-05-16T06:39:05;2.93;;;2.70;;
30147;SDS011;16960;49.404;8.248;2023-05-16T06:41:32;4.07;;;3.30;;
30147;SDS011;16960;49.404;8.248;2023-05-16T06:44:00;2.90;;;2.53;;
30147;SDS011;16960;49.404;8.248;2023-05-16T06:46:26;2.73;;;2.53;;
30147;SDS011;16960;49.404;8.248;2023-05-16T06:48:55;4.10;;;3.03;;
30147;SDS011;16960;49.404;8.248;2023-05-16T06:51:22;3.43;;;2.33;;
30147;SDS011;16960;49.404;8.248;2023-05-16T06:53:48;2.87;;;2.47;;
30147;SDS011;16960;49.404;8.248;2023-05-16T06:56:15;2.53;;;2.33;;
30147;SDS011;16960;49.404;8.248;2023-05-16T06:58:42;2.50;;;2.30;;
30147;SDS011;16960;49.404;8.248;2023-05-16T07:01:09;2.90;;;2.53;;
30147;SDS011;16960;49.404;8.248;2023-05-16T07:03:36;2.47;;;2.27;;
30147;SDS011;16960;49.404;8.248;2023-05-16T07:06:05;2.13;;;1.97;;
30147;SDS011;16960;49.404;8.248;2023-05-16T07:08:33;2.03;;;1.90;;
30147;SDS011;16960;49.404;8.248;2023-05-16T07:11:01;3.10;;;2.57;;
30147;SDS011;16960;49.404;8.248;2023-05-16T07:13:28;2.33;;;2.13;;
30147;SDS011;16960;49.404;8.248;2023-05-16T07:15:55;2.30;;;2.10;;
30147;SDS011;16960;49.404;8.248;2023-05-16T07:18:21;2.80;;;2.17;;
30147;SDS011;16960;49.404;8.248;2023-05-16T07:20:49;2.10;;;2.00;;
30147;SDS011;16960;49.404;8.248;2023-05-16T07:23:17;3.17;;;2.00;;
30147;SDS011;16960;49.404;8.248;2023-05-16T07:25:44;2.30;;;1.93;;
30147;SDS011;16960;49.404;8.248;2023-05-16T07:28:11;2.03;;;1.93;;
30147;SDS011;16960;49.404;8.248;2023-05-16T07:30:38;1.87;;;1.77;;
30147;SDS011;16960;49.404;8.248;2023-05-16T07:33:05;1.80;;;1.70;;
30147;SDS011;16960;49.404;8.248;2023-05-16T07:35:32;1.60;;;1.50;;
30147;SDS011;16960;49.404;8.248;2023-05-16T07:37:59;1.63;;;1.53;;
30147;SDS011;16960;49.404;8.248;2023-05-16T07:40:27;2.70;;;1.70;;
30147;SDS011;16960;49.404;8.248;2023-05-16T07:42:54;1.93;;;1.80;;
30147;SDS011;16960;49.404;8.248;2023-05-16T07:45:21;1.90;;;1.80;;
30147;SDS011;16960;49.404;8.248;2023-05-16T07:47:48;1.80;;;1.70;;
30147;SDS011;16960;49.404;8.248;2023-05-16T07:50:15;2.10;;;1.90;;
30147;SDS011;16960;49.404;8.248;2023-05-16T07:52:42;1.80;;;1.70;;
30147;SDS011;16960;49.404;8.248;2023-05-16T07:55:09;1.83;;;1.63;;
30147;SDS011;16960;49.404;8.248;2023-05-16T07:57:37;1.90;;;1.80;;
30147;SDS011;16960;49.404;8.248;2023-05-16T08:00:05;2.00;;;1.80;;
30147;SDS011;16960;49.404;8.248;2023-05-16T08:02:33;1.43;;;1.33;;
30147;SDS011;16960;49.404;8.248;2023-05-16T08:05:00;1.57;;;1.47;;
30147;SDS011;16960;49.404;8.248;2023-05-16T08:07:27;1.60;;;1.47;;
30147;SDS011;16960;49.404;8.248;2023-05-16T08:09:54;2.90;;;1.40;;
30147;SDS011;16960;49.404;8.248;2023-05-16T08:12:22;3.13;;;1.80;;
30147;SDS011;16960;49.404;8.248;2023-05-16T08:14:50;1.87;;;1.73;;
30147;SDS011;16960;49.404;8.248;2023-05-16T08:17:17;7.07;;;1.40;;
30147;SDS011;16960;49.404;8.248;2023-05-16T08:19:44;1.90;;;1.80;;
30147;SDS011;16960;49.404;8.248;2023-05-16T08:22:11;1.57;;;1.47;;
30147;SDS011;16960;49.404;8.248;2023-05-16T08:24:38;1.43;;;1.30;;
30147;SDS011;16960;49.404;8.248;2023-05-16T08:27:05;1.43;;;1.33;;
30147;SDS011;16960;49.404;8.248;2023-05-16T08:29:32;1.90;;;1.40;;
30147;SDS011;16960;49.404;8.248;2023-05-16T08:32:01;1.47;;;1.37;;
30147;SDS011;16960;49.404;8.248;2023-05-16T08:34:29;1.27;;;1.13;;
30147;SDS011;16960;49.404;8.248;2023-05-16T08:36:56;1.13;;;1.10;;
30147;SDS011;16960;49.404;8.248;2023-05-16T08:39:23;2.10;;;1.47;;
30147;SDS011;16960;49.404;8.248;2023-05-16T08:41:50;1.20;;;1.10;;
30147;SDS011;16960;49.404;8.248;2023-05-16T08:44:17;1.23;;;1.13;;
30147;SDS011;16960;49.404;8.248;2023-05-16T08:46:47;1.20;;;1.10;;
30147;SDS011;16960;49.404;8.248;2023-05-16T08:49:18;1.20;;;1.10;;
30147;SDS011;16960;49.404;8.248;2023-05-16T08:51:46;1.30;;;1.20;;
30147;SDS011;16960;49.404;8.248;2023-05-16T08:54:14;2.80;;;1.37;;
30147;SDS011;16960;49.404;8.248;2023-05-16T08:56:42;2.07;;;1.10;;
30147;SDS011;16960;49.404;8.248;2023-05-16T08:59:10;1.07;;;1.00;;
30147;SDS011;16960;49.404;8.248;2023-05-16T09:01:37;1.00;;;0.90;;
30147;SDS011;16960;49.404;8.248;2023-05-16T09:04:05;1.20;;;1.10;;
30147;SDS011;16960;49.404;8.248;2023-05-16T09:06:35;2.10;;;1.43;;
30147;SDS011;16960;49.404;8.248;2023-05-16T09:09:02;2.30;;;1.30;;
30147;SDS011;16960;49.404;8.248;2023-05-16T09:11:32;1.40;;;1.30;;
30147;SDS011;16960;49.404;8.248;2023-05-16T09:13:59;1.70;;;1.13;;
30147;SDS011;16960;49.404;8.248;2023-05-16T09:16:26;2.87;;;1.00;;
30147;SDS011;16960;49.404;8.248;2023-05-16T09:18:53;0.77;;;0.77;;
30147;SDS011;16960;49.404;8.248;2023-05-16T09:21:22;1.10;;;1.00;;
30147;SDS011;16960;49.404;8.248;2023-05-16T09:23:54;1.63;;;0.90;;
30147;SDS011;16960;49.404;8.248;2023-05-16T09:26:21;1.10;;;1.00;;
30147;SDS011;16960;49.404;8.248;2023-05-16T09:28:48;1.07;;;0.97;;
30147;SDS011;16960;49.404;8.248;2023-05-16T09:31:19;0.80;;;0.80;;
30147;SDS011;16960;49.404;8.248;2023-05-16T09:33:47;0.97;;;0.87;;
30147;SDS011;16960;49.404;8.248;2023-05-16T09:36:14;1.00;;;1.00;;
30147;SDS011;16960;49.404;8.248;2023-05-16T09:38:41;1.00;;;0.90;;
30147;SDS011;16960;49.404;8.248;2023-05-16T09:41:10;2.87;;;1.20;;
30147;SDS011;16960;49.404;8.248;2023-05-16T09:43:38;1.20;;;1.10;;
30147;SDS011;16960;49.404;8.248;2023-05-16T09:46:07;0.87;;;0.80;;
30147;SDS011;16960;49.404;8.248;2023-05-16T09:48:34;1.37;;;0.90;;
30147;SDS011;16960;49.404;8.248;2023-05-16T09:51:01;1.00;;;1.00;;
30147;SDS011;16960;49.404;8.248;2023-05-16T09:53:31;1.10;;;1.00;;
30147;SDS011;16960;49.404;8.248;2023-05-16T09:55:59;1.40;;;1.20;;
30147;SDS011;16960;49.404;8.248;2023-05-16T09:58:29;1.17;;;1.07;;
30147;SDS011;16960;49.404;8.248;2023-05-16T10:00:57;1.83;;;1.07;;
30147;SDS011;16960;49.404;8.248;2023-05-16T10:03:24;1.50;;;1.13;;
30147;SDS011;16960;49.404;8.248;2023-05-16T10:05:52;0.83;;;0.77;;
30147;SDS011;16960;49.404;8.248;2023-05-16T10:08:19;0.80;;;0.80;;
30147;SDS011;16960;49.404;8.248;2023-05-16T10:10:49;9.43;;;1.00;;
30147;SDS011;16960;49.404;8.248;2023-05-16T10:13:18;1.13;;;1.03;;
30147;SDS011;16960;49.404;8.248;2023-05-16T10:15:49;1.00;;;0.83;;
30147;SDS011;16960;49.404;8.248;2023-05-16T10:18:16;1.03;;;0.77;;
30147;SDS011;16960;49.404;8.248;2023-05-16T10:20:45;0.87;;;0.63;;
30147;SDS011;16960;49.404;8.248;2023-05-16T10:23:15;0.90;;;0.60;;
30147;SDS011;16960;49.404;8.248;2023-05-16T10:25:44;0.90;;;0.80;;
30147;SDS011;16960;49.404;8.248;2023-05-16T10:28:12;1.10;;;0.70;;
30147;SDS011;16960;49.404;8.248;2023-05-16T10:30:40;0.77;;;0.77;;
30147;SDS011;16960;49.404;8.248;2023-05-16T10:33:10;1.00;;;0.90;;
30147;SDS011;16960;49.404;8.248;2023-05-16T10:35:39;0.53;;;0.53;;
30147;SDS011;16960;49.404;8.248;2023-05-16T10:38:06;1.47;;;0.83;;
30147;SDS011;16960;49.404;8.248;2023-05-16T10:40:35;0.63;;;0.60;;
30147;SDS011;16960;49.404;8.248;2023-05-16T10:43:04;0.60;;;0.60;;
30147;SDS011;16960;49.404;8.248;2023-05-16T10:45:33;1.40;;;0.80;;
30147;SDS011;16960;49.404;8.248;2023-05-16T10:48:00;1.10;;;0.80;;
30147;SDS011;16960;49.404;8.248;2023-05-16T10:50:31;2.50;;;1.00;;
30147;SDS011;16960;49.404;8.248;2023-05-16T10:53:15;0.73;;;0.70;;
30147;SDS011;16960;49.404;8.248;2023-05-16T10:55:47;1.63;;;0.70;;
30147;SDS011;16960;49.404;8.248;2023-05-16T10:58:22;0.70;;;0.70;;
30147;SDS011;16960;49.404;8.248;2023-05-16T11:06:32;0.70;;;0.60;;
30147;SDS011;16960;49.404;8.248;2023-05-16T11:09:03;0.63;;;0.60;;
30147;SDS011;16960;49.404;8.248;2023-05-16T11:11:40;0.97;;;0.90;;
30147;SDS011;16960;49.404;8.248;2023-05-16T11:14:16;1.87;;;0.80;;
30147;SDS011;16960;49.404;8.248;2023-05-16T11:16:49;2.20;;;0.83;;
30147;SDS011;16960;49.404;8.248;2023-05-16T11:19:33;2.70;;;1.27;;
30147;SDS011;16960;49.404;8.248;2023-05-16T11:22:11;1.30;;;1.13;;
30147;SDS011;16960;49.404;8.248;2023-05-16T11:24:50;3.10;;;1.70;;
30147;SDS011;16960;49.404;8.248;2023-05-16T11:27:23;1.33;;;1.10;;
30147;SDS011;16960;49.404;8.248;2023-05-16T11:29:55;2.10;;;1.20;;
30147;SDS011;16960;49.404;8.248;2023-05-16T11:32:25;2.40;;;1.47;;
30147;SDS011;16960;49.404;8.248;2023-05-16T11:34:52;2.07;;;1.00;;
30147;SDS011;16960;49.404;8.248;2023-05-16T11:37:21;2.10;;;1.10;;
30147;SDS011;16960;49.404;8.248;2023-05-16T11:39:47;1.80;;;1.17;;
30147;SDS011;16960;49.404;8.248;2023-05-16T11:42:15;1.47;;;1.00;;
30147;SDS011;16960;49.404;8.248;2023-05-16T11:44:43;2.10;;;0.93;;
30147;SDS011;16960;49.404;8.248;2023-05-16T11:47:10;1.97;;;1.50;;
30147;SDS011;16960;49.404;8.248;2023-05-16T11:49:37;2.07;;;1.10;;
30147;SDS011;16960;49.404;8.248;2023-05-16T11:52:06;1.30;;;1.10;;
30147;SDS011;16960;49.404;8.248;2023-05-16T11:54:35;1.60;;;1.13;;
30147;SDS011;16960;49.404;8.248;2023-05-16T11:57:03;1.80;;;1.20;;
30147;SDS011;16960;49.404;8.248;2023-05-16T11:59:31;3.43;;;1.40;;
30147;SDS011;16960;49.404;8.248;2023-05-16T12:01:58;1.77;;;1.00;;
30147;SDS011;16960;49.404;8.248;2023-05-16T12:04:30;2.77;;;1.50;;
30147;SDS011;16960;49.404;8.248;2023-05-16T12:06:58;2.33;;;1.57;;
30147;SDS011;16960;49.404;8.248;2023-05-16T12:09:26;7.83;;;1.57;;
30147;SDS011;16960;49.404;8.248;2023-05-16T12:11:55;2.83;;;1.50;;
30147;SDS011;16960;49.404;8.248;2023-05-16T12:14:22;1.50;;;0.97;;
30147;SDS011;16960;49.404;8.248;2023-05-16T12:16:50;2.80;;;1.40;;
30147;SDS011;16960;49.404;8.248;2023-05-16T12:19:18;2.17;;;1.00;;
30147;SDS011;16960;49.404;8.248;2023-05-16T12:21:46;1.43;;;1.20;;
30147;SDS011;16960;49.404;8.248;2023-05-16T12:24:13;2.60;;;1.17;;
30147;SDS011;16960;49.404;8.248;2023-05-16T12:26:41;1.40;;;1.00;;
30147;SDS011;16960;49.404;8.248;2023-05-16T12:29:10;4.70;;;1.37;;
30147;SDS011;16960;49.404;8.248;2023-05-16T12:31:38;1.70;;;1.10;;
30147;SDS011;16960;49.404;8.248;2023-05-16T12:34:15;2.20;;;1.23;;
30147;SDS011;16960;49.404;8.248;2023-05-16T12:36:44;2.10;;;1.27;;
30147;SDS011;16960;49.404;8.248;2023-05-16T12:39:15;2.30;;;1.37;;
30147;SDS011;16960;49.404;8.248;2023-05-16T12:41:43;2.40;;;1.13;;
30147;SDS011;16960;49.404;8.248;2023-05-16T12:44:12;4.53;;;1.40;;
30147;SDS011;16960;49.404;8.248;2023-05-16T12:46:42;6.80;;;1.40;;
30147;SDS011;16960;49.404;8.248;2023-05-16T12:49:10;1.97;;;1.20;;
30147;SDS011;16960;49.404;8.248;2023-05-16T12:51:37;2.60;;;1.03;;
30147;SDS011;16960;49.404;8.248;2023-05-16T12:54:08;2.13;;;1.00;;
30147;SDS011;16960;49.404;8.248;2023-05-16T12:56:36;1.83;;;1.03;;
30147;SDS011;16960;49.404;8.248;2023-05-16T12:59:04;2.03;;;1.43;;
30147;SDS011;16960;49.404;8.248;2023-05-16T13:01:32;2.27;;;1.00;;
30147;SDS011;16960;49.404;8.248;2023-05-16T13:04:00;2.67;;;1.33;;
30147;SDS011;16960;49.404;8.248;2023-05-16T13:06:28;3.50;;;1.77;;
30147;SDS011;16960;49.404;8.248;2023-05-16T13:08:55;5.27;;;1.30;;
30147;SDS011;16960;49.404;8.248;2023-05-16T13:11:22;2.50;;;1.50;;
30147;SDS011;16960;49.404;8.248;2023-05-16T13:13:50;1.97;;;1.30;;
30147;SDS011;16960;49.404;8.248;2023-05-16T13:16:17;1.63;;;1.10;;
30147;SDS011;16960;49.404;8.248;2023-05-16T13:18:45;1.70;;;1.13;;
30147;SDS011;16960;49.404;8.248;2023-05-16T13:21:12;3.63;;;1.43;;
30147;SDS011;16960;49.404;8.248;2023-05-16T13:23:40;2.67;;;1.30;;
30147;SDS011;16960;49.404;8.248;2023-05-16T13:26:07;2.70;;;1.20;;
30147;SDS011;16960;49.404;8.248;2023-05-16T13:28:34;3.87;;;1.40;;
30147;SDS011;16960;49.404;8.248;2023-05-16T13:31:01;4.10;;;1.43;;
30147;SDS011;16960;49.404;8.248;2023-05-16T13:33:28;3.63;;;1.10;;
30147;SDS011;16960;49.404;8.248;2023-05-16T13:35:56;3.73;;;1.30;;
30147;SDS011;16960;49.404;8.248;2023-05-16T13:38:23;5.17;;;1.83;;
30147;SDS011;16960;49.404;8.248;2023-05-16T13:40:50;2.67;;;1.20;;
30147;SDS011;16960;49.404;8.248;2023-05-16T13:43:17;3.10;;;1.10;;
30147;SDS011;16960;49.404;8.248;2023-05-16T13:45:44;5.10;;;1.13;;
30147;SDS011;16960;49.404;8.248;2023-05-16T13:48:11;5.73;;;1.20;;
30147;SDS011;16960;49.404;8.248;2023-05-16T13:50:38;2.30;;;1.00;;
30147;SDS011;16960;49.404;8.248;2023-05-16T13:53:06;4.13;;;1.33;;
30147;SDS011;16960;49.404;8.248;2023-05-16T13:55:33;2.90;;;1.43;;
30147;SDS011;16960;49.404;8.248;2023-05-16T13:58:00;2.10;;;0.90;;
30147;SDS011;16960;49.404;8.248;2023-05-16T14:00:27;9.97;;;1.70;;
30147;SDS011;16960;49.404;8.248;2023-05-16T14:02:54;2.67;;;1.20;;
30147;SDS011;16960;49.404;8.248;2023-05-16T14:05:21;4.83;;;1.70;;
30147;SDS011;16960;49.404;8.248;2023-05-16T14:07:48;3.83;;;1.37;;
30147;SDS011;16960;49.404;8.248;2023-05-16T14:10:17;3.47;;;1.10;;
30147;SDS011;16960;49.404;8.248;2023-05-16T14:12:44;2.67;;;1.00;;
30147;SDS011;16960;49.404;8.248;2023-05-16T14:15:11;3.03;;;1.43;;
30147;SDS011;16960;49.404;8.248;2023-05-16T14:17:38;1.43;;;1.07;;
30147;SDS011;16960;49.404;8.248;2023-05-16T14:20:06;3.77;;;1.20;;
30147;SDS011;16960;49.404;8.248;2023-05-16T14:22:34;2.60;;;1.30;;
30147;SDS011;16960;49.404;8.248;2023-05-16T14:25:02;2.47;;;0.90;;
30147;SDS011;16960;49.404;8.248;2023-05-16T14:27:31;3.93;;;1.17;;
30147;SDS011;16960;49.404;8.248;2023-05-16T14:29:58;1.93;;;0.80;;
30147;SDS011;16960;49.404;8.248;2023-05-16T14:32:26;6.00;;;1.77;;
30147;SDS011;16960;49.404;8.248;2023-05-16T14:34:53;5.10;;;1.10;;
30147;SDS011;16960;49.404;8.248;2023-05-16T14:37:20;2.80;;;1.23;;
30147;SDS011;16960;49.404;8.248;2023-05-16T14:39:47;1.70;;;1.33;;
30147;SDS011;16960;49.404;8.248;2023-05-16T14:42:15;2.90;;;1.40;;
30147;SDS011;16960;49.404;8.248;2023-05-16T14:44:44;5.10;;;1.70;;
30147;SDS011;16960;49.404;8.248;2023-05-16T14:47:11;3.10;;;1.10;;
30147;SDS011;16960;49.404;8.248;2023-05-16T14:49:38;3.80;;;1.30;;
30147;SDS011;16960;49.404;8.248;2023-05-16T14:52:05;2.40;;;1.33;;
30147;SDS011;16960;49.404;8.248;2023-05-16T14:54:35;2.57;;;1.03;;
30147;SDS011;16960;49.404;8.248;2023-05-16T14:57:02;1.40;;;0.90;;
30147;SDS011;16960;49.404;8.248;2023-05-16T14:59:30;3.00;;;1.10;;
30147;SDS011;16960;49.404;8.248;2023-05-16T15:01:58;3.13;;;1.17;;
30147;SDS011;16960;49.404;8.248;2023-05-16T15:04:25;2.87;;;1.27;;
30147;SDS011;16960;49.404;8.248;2023-05-16T15:06:53;1.87;;;1.07;;
30147;SDS011;16960;49.404;8.248;2023-05-16T15:09:20;2.60;;;1.13;;
30147;SDS011;16960;49.404;8.248;2023-05-16T15:11:47;4.10;;;1.43;;
30147;SDS011;16960;49.404;8.248;2023-05-16T15:14:14;2.10;;;1.20;;
30147;SDS011;16960;49.404;8.248;2023-05-16T15:16:41;2.20;;;0.93;;
30147;SDS011;16960;49.404;8.248;2023-05-16T15:19:09;4.33;;;0.90;;